الصفحة الرئيسية
METAR-TAF:

METAR-TAF

مطار :

Rivas, نيكاراغوا

دائرة عرض: 11-25N, خط طول: 085-50W, ارتفاع: 53 متر

مراقبة الطقس الحالي

تاريخ ووقت الإصدار 13ساعات و 44 دقيقة قبل الساعة 23:00UTC
ريح 4 عقدة من الشمال
درجة الحرارة 27°درجة مئوية
الرطوبة 84%
ضغط 1008 hPa
الرؤية 10 كم أو أكثر
غيوم متفرقة على ارتفاع 1200 قدم, مزنة ركامية.
غيوم متفرقة على ارتفاع 7000 قدم

METAR: MNRS 252300Z 36004KT 9999 SCT012CB SCT070 27/24 Q1008 CB 4/C

زمن: 06:44 (12:44 UTC)


TAF: مفقودة

أرصاد الطقس والتوقعات من أكثر من 4000 مطار (تقارير الطقس للمطار METAR والتنبؤ بالطقس بالمطارTAF).

المحطات المتاحة هي النقط الصفراء والحمراء على الخريطة.

حرك المؤشر فوق النقطة لمعرفة اسم المحطة.

ثم انقر لمعرفة أرصاد وتوقعات الطقس.

لتغيير الخارطة: اضغط على الأزرار الخضراء مع رمز الصليب الأسود للتكبير. على الزر الأخضر مع شرطة للتصغير، أو على الأسهم الخضراء للخرائط المجاورة.


METAR-TAF: